Time;durP1;ratioP1;P1;durP2;ratioP2;P2;SDS_P1;SDS_P2;PMS_P1;PMS_P2;Temp;Humidity;BMP_temperature;BMP_pressure;BME280_temperature;BME280_humidity;BME280_pressure;Samples;Min_cycle;Max_cycle;Signal;HPM_P1;HPM_P2
2024/03/08 00:00:12;;;;;;;;;36.75;34.00;;;;;;;;4902142;28;48052;-66
2024/03/08 00:02:37;;;;;;;;;39.25;35.00;;;;;;;;4922941;28;45743;-66
2024/03/08 00:05:06;;;;;;;;;45.00;37.00;;;;;;;;4925874;28;45514;-66
2024/03/08 00:07:31;;;;;;;;;45.00;36.75;;;;;;;;4911700;28;45402;-66
2024/03/08 00:09:56;;;;;;;;;49.50;39.25;;;;;;;;4925866;28;45393;-66
2024/03/08 00:12:21;;;;;;;;;42.33;37.00;;;;;;;;4887729;29;45388;-66
2024/03/08 00:14:47;;;;;;;;;44.00;36.33;;;;;;;;4919789;28;45392;-66
2024/03/08 00:17:12;;;;;;;;;47.00;41.00;;;;;;;;4920936;28;45308;-66
2024/03/08 00:19:37;;;;;;;;;39.00;35.67;;;;;;;;4919771;28;46290;-66
2024/03/08 00:22:02;;;;;;;;;39.33;35.00;;;;;;;;4923469;28;45511;-66
2024/03/08 00:24:28;;;;;;;;;42.67;37.67;;;;;;;;4923905;28;45466;-66
2024/03/08 00:26:54;;;;;;;;;46.00;38.75;;;;;;;;4905368;28;45395;-66
2024/03/08 00:29:19;;;;;;;;;47.75;39.00;;;;;;;;4902078;28;47071;-66
2024/03/08 00:31:44;;;;;;;;;45.33;37.00;;;;;;;;4929472;28;45332;-66
2024/03/08 00:34:11;;;;;;;;;44.00;38.00;;;;;;;;4941861;28;45407;-66
2024/03/08 00:36:36;;;;;;;;;40.50;34.75;;;;;;;;4934547;28;45543;-66
2024/03/08 00:39:02;;;;;;;;;45.00;37.00;;;;;;;;4929197;28;47378;-65
2024/03/08 00:41:28;;;;;;;;;45.25;37.00;;;;;;;;4928440;28;45343;-66
2024/03/08 00:43:53;;;;;;;;;45.50;39.50;;;;;;;;4928916;28;45558;-65
2024/03/08 00:46:18;;;;;;;;;40.33;35.33;;;;;;;;4925492;28;45469;-66
2024/03/08 00:48:44;;;;;;;;;42.50;37.25;;;;;;;;4924721;28;46388;-65
2024/03/08 00:51:09;;;;;;;;;41.25;35.25;;;;;;;;4918254;28;45385;-66
2024/03/08 00:53:34;;;;;;;;;45.67;39.33;;;;;;;;4921906;28;45426;-66
2024/03/08 00:56:00;;;;;;;;;43.67;36.00;;;;;;;;4925545;28;45386;-66
2024/03/08 00:58:25;;;;;;;;;40.67;36.00;;;;;;;;4919555;28;46299;-66
2024/03/08 01:00:50;;;;;;;;;44.33;37.33;;;;;;;;4922542;28;46267;-66
2024/03/08 01:03:15;;;;;;;;;47.50;40.00;;;;;;;;4907720;28;45466;-66
2024/03/08 01:05:40;;;;;;;;;44.67;37.67;;;;;;;;4926667;28;45669;-65
2024/03/08 01:08:06;;;;;;;;;49.00;38.33;;;;;;;;4921847;28;46329;-66
2024/03/08 01:10:31;;;;;;;;;40.25;36.50;;;;;;;;4924608;28;45478;-66
2024/03/08 01:12:56;;;;;;;;;49.00;37.33;;;;;;;;4923432;28;45413;-66
2024/03/08 01:15:22;;;;;;;;;35.25;33.50;;;;;;;;4924187;28;45420;-66
2024/03/08 01:17:47;;;;;;;;;50.00;38.75;;;;;;;;4896427;28;46947;-66
2024/03/08 01:20:12;;;;;;;;;47.33;37.67;;;;;;;;4923281;28;45340;-66
2024/03/08 01:22:38;;;;;;;;;28.00;21.33;;;;;;;;4922202;28;45732;-66
2024/03/08 01:25:04;;;;;;;;;47.50;41.25;;;;;;;;4904180;28;45525;-66
2024/03/08 01:27:30;;;;;;;;;40.25;35.75;;;;;;;;4901459;28;46033;-66
2024/03/08 01:29:55;;;;;;;;;53.00;40.00;;;;;;;;4917643;28;45532;-66
2024/03/08 01:32:22;;;;;;;;;47.00;39.33;;;;;;;;4933380;28;45322;-66
2024/03/08 01:34:48;;;;;;;;;41.50;37.00;;;;;;;;4917504;28;45535;-66
2024/03/08 01:37:14;;;;;;;;;44.33;37.33;;;;;;;;4940205;28;46273;-65
2024/03/08 01:39:39;;;;;;;;;42.75;36.75;;;;;;;;4935253;28;45473;-66
2024/03/08 01:42:05;;;;;;;;;48.67;39.00;;;;;;;;4925895;28;45357;-66
2024/03/08 01:44:31;;;;;;;;;44.75;38.25;;;;;;;;4923962;28;45431;-65
2024/03/08 01:46:56;;;;;;;;;48.75;41.25;;;;;;;;4923438;28;46178;-66
2024/03/08 01:49:22;;;;;;;;;51.33;39.33;;;;;;;;4923183;28;45441;-66
2024/03/08 01:51:49;;;;;;;;;48.00;39.00;;;;;;;;4899448;28;45415;-66
2024/03/08 01:54:16;;;;;;;;;42.50;37.00;;;;;;;;4925206;28;45552;-66
2024/03/08 01:56:42;;;;;;;;;45.00;38.50;;;;;;;;4922670;28;46292;-66
2024/03/08 01:59:10;;;;;;;;;54.75;41.50;;;;;;;;4916826;28;45277;-65
2024/03/08 02:01:35;;;;;;;;;49.50;41.50;;;;;;;;4922795;28;45430;-66
2024/03/08 02:04:00;;;;;;;;;45.75;38.75;;;;;;;;4930799;28;45369;-65
2024/03/08 02:06:25;;;;;;;;;43.67;38.00;;;;;;;;4922851;28;45589;-65
2024/03/08 02:08:51;;;;;;;;;45.00;39.00;;;;;;;;4924523;28;45304;-65
2024/03/08 02:11:16;;;;;;;;;49.00;40.00;;;;;;;;4922408;28;45438;-66
2024/03/08 02:13:41;;;;;;;;;54.00;40.67;;;;;;;;4906567;28;45424;-65
2024/03/08 02:16:08;;;;;;;;;49.00;39.67;;;;;;;;4922520;28;45453;-66
2024/03/08 02:18:34;;;;;;;;;45.50;40.00;;;;;;;;4896138;28;45609;-66
2024/03/08 02:21:00;;;;;;;;;52.75;40.50;;;;;;;;4922004;28;45302;-65
2024/03/08 02:23:25;;;;;;;;;51.75;41.00;;;;;;;;4928147;28;45463;-66
2024/03/08 02:25:51;;;;;;;;;48.25;40.50;;;;;;;;4915022;28;46294;-65
2024/03/08 02:28:19;;;;;;;;;56.25;45.75;;;;;;;;4888191;28;45350;-66
2024/03/08 02:30:46;;;;;;;;;47.00;38.25;;;;;;;;4900301;28;45488;-66
2024/03/08 02:33:13;;;;;;;;;53.75;40.00;;;;;;;;4921549;28;45442;-65
2024/03/08 02:35:38;;;;;;;;;39.75;36.75;;;;;;;;4919542;28;46256;-66
2024/03/08 02:38:03;;;;;;;;;47.00;37.67;;;;;;;;4922354;28;45321;-66
2024/03/08 02:40:29;;;;;;;;;49.50;39.75;;;;;;;;4920319;28;45521;-65
2024/03/08 02:42:54;;;;;;;;;50.25;41.00;;;;;;;;4924451;28;45312;-66
2024/03/08 02:45:20;;;;;;;;;48.67;39.67;;;;;;;;4921920;28;47279;-65
2024/03/08 02:47:45;;;;;;;;;51.25;39.50;;;;;;;;4923154;28;46364;-66
2024/03/08 02:50:11;;;;;;;;;54.00;40.00;;;;;;;;4918658;28;45460;-66
2024/03/08 02:52:36;;;;;;;;;48.00;41.00;;;;;;;;4919838;28;45486;-66
2024/03/08 02:55:02;;;;;;;;;52.67;43.33;;;;;;;;4904616;28;48510;-66
2024/03/08 02:57:27;;;;;;;;;42.50;36.00;;;;;;;;4921533;28;45456;-65
2024/03/08 02:59:53;;;;;;;;;40.33;32.33;;;;;;;;4899320;28;45431;-66
2024/03/08 03:02:18;;;;;;;;;47.75;38.00;;;;;;;;4921498;28;45547;-66
2024/03/08 03:04:43;;;;;;;;;44.00;34.33;;;;;;;;4921825;28;45595;-66
2024/03/08 03:07:09;;;;;;;;;54.67;40.00;;;;;;;;4925939;28;45626;-66
2024/03/08 03:09:34;;;;;;;;;44.33;36.67;;;;;;;;4929421;28;45404;-65
2024/03/08 03:12:00;;;;;;;;;48.75;38.50;;;;;;;;4922250;28;45741;-65
2024/03/08 03:14:27;;;;;;;;;48.33;39.33;;;;;;;;4921435;28;45434;-66
2024/03/08 03:16:52;;;;;;;;;51.25;42.00;;;;;;;;4922204;28;45856;-66
2024/03/08 03:19:17;;;;;;;;;47.50;42.00;;;;;;;;4916841;28;45308;-66
2024/03/08 03:21:43;;;;;;;;;39.25;38.00;;;;;;;;4924581;28;45621;-66
2024/03/08 03:24:10;;;;;;;;;40.50;36.50;;;;;;;;4923571;28;45588;-65
2024/03/08 03:26:37;;;;;;;;;56.25;45.00;;;;;;;;4918105;28;45358;-66
2024/03/08 03:29:03;;;;;;;;;50.00;39.00;;;;;;;;4916759;28;45474;-66
2024/03/08 03:31:28;;;;;;;;;48.00;40.00;;;;;;;;4927560;28;45434;-66
2024/03/08 03:33:54;;;;;;;;;51.00;42.00;;;;;;;;4941281;28;46210;-65
2024/03/08 03:36:19;;;;;;;;;50.75;39.25;;;;;;;;4934272;28;45382;-65
2024/03/08 03:38:45;;;;;;;;;52.50;41.75;;;;;;;;4938905;28;45359;-66
2024/03/08 03:41:10;;;;;;;;;38.00;36.00;;;;;;;;4929826;28;45588;-65
2024/03/08 03:43:39;;;;;;;;;46.67;37.67;;;;;;;;4926900;28;46710;-66
2024/03/08 03:46:05;;;;;;;;;51.25;40.75;;;;;;;;4929755;28;45481;-66
2024/03/08 03:48:31;;;;;;;;;47.75;39.25;;;;;;;;4925815;28;45373;-66
2024/03/08 03:50:57;;;;;;;;;47.00;39.00;;;;;;;;4903209;28;45523;-65
2024/03/08 03:53:22;;;;;;;;;55.33;42.33;;;;;;;;4932441;28;45389;-65
2024/03/08 03:55:47;;;;;;;;;37.67;36.00;;;;;;;;4924544;28;45336;-66
2024/03/08 03:58:12;;;;;;;;;49.33;39.67;;;;;;;;4922503;28;45665;-65
2024/03/08 04:00:37;;;;;;;;;46.00;36.33;;;;;;;;4923726;28;45488;-66
2024/03/08 04:03:03;;;;;;;;;44.00;38.33;;;;;;;;4922673;28;46501;-66
2024/03/08 04:05:28;;;;;;;;;43.67;36.00;;;;;;;;4930239;28;45410;-66
2024/03/08 04:07:53;;;;;;;;;48.50;39.75;;;;;;;;4914604;28;45360;-66
2024/03/08 04:10:19;;;;;;;;;51.00;41.00;;;;;;;;4909711;28;45413;-66
2024/03/08 04:12:45;;;;;;;;;44.25;38.75;;;;;;;;4904283;28;47385;-66
2024/03/08 04:15:10;;;;;;;;;44.75;36.50;;;;;;;;4926623;28;45433;-66
2024/03/08 04:17:37;;;;;;;;;46.50;39.50;;;;;;;;4924455;28;45642;-65
2024/03/08 04:20:07;;;;;;;;;46.50;38.00;;;;;;;;4923728;28;45489;-65
2024/03/08 04:22:32;;;;;;;;;39.50;37.25;;;;;;;;4923570;28;46769;-66
2024/03/08 04:24:57;;;;;;;;;48.00;38.25;;;;;;;;4925148;28;45243;-66
2024/03/08 04:27:23;;;;;;;;;45.67;38.67;;;;;;;;4919809;28;45783;-65
2024/03/08 04:29:48;;;;;;;;;48.50;41.50;;;;;;;;4904811;28;45546;-65
2024/03/08 04:32:13;;;;;;;;;36.67;33.00;;;;;;;;4932167;28;45536;-65
2024/03/08 04:34:39;;;;;;;;;47.67;41.00;;;;;;;;4940606;28;45451;-65
2024/03/08 04:37:04;;;;;;;;;44.67;39.67;;;;;;;;4937478;28;45441;-65
2024/03/08 04:39:30;;;;;;;;;32.75;30.25;;;;;;;;4935774;28;45477;-66
2024/03/08 04:41:58;;;;;;;;;48.50;40.25;;;;;;;;4925498;28;45708;-65
2024/03/08 04:44:24;;;;;;;;;49.25;40.00;;;;;;;;4925630;28;45981;-66
2024/03/08 04:46:49;;;;;;;;;41.75;36.00;;;;;;;;4907881;28;45361;-66
2024/03/08 04:49:14;;;;;;;;;41.00;36.67;;;;;;;;4925411;28;45787;-66
2024/03/08 04:51:40;;;;;;;;;47.00;39.33;;;;;;;;4916324;28;46131;-65
2024/03/08 04:54:05;;;;;;;;;46.00;40.50;;;;;;;;4925070;28;45223;-65
2024/03/08 04:56:30;;;;;;;;;44.67;37.00;;;;;;;;4923119;28;45334;-65
2024/03/08 04:58:55;;;;;;;;;38.00;35.67;;;;;;;;4918278;28;45396;-66
2024/03/08 05:01:21;;;;;;;;;48.33;40.00;;;;;;;;4905573;28;47210;-66
2024/03/08 05:03:49;;;;;;;;;44.50;39.25;;;;;;;;4922721;28;47111;-66
2024/03/08 05:06:14;;;;;;;;;45.50;37.50;;;;;;;;4929106;28;45495;-66
2024/03/08 05:08:40;;;;;;;;;50.00;40.33;;;;;;;;4926064;28;45303;-65
2024/03/08 05:11:06;;;;;;;;;48.67;40.00;;;;;;;;4922362;28;45992;-66
2024/03/08 05:13:32;;;;;;;;;45.00;37.50;;;;;;;;4923999;28;45419;-66
2024/03/08 05:15:58;;;;;;;;;37.50;36.25;;;;;;;;4927377;28;45649;-66
2024/03/08 05:18:23;;;;;;;;;45.75;35.50;;;;;;;;4915244;28;45524;-66
2024/03/08 05:20:48;;;;;;;;;48.75;38.25;;;;;;;;4922087;28;45457;-65
2024/03/08 05:23:14;;;;;;;;;45.33;38.00;;;;;;;;4923578;28;45438;-65
2024/03/08 05:25:39;;;;;;;;;45.00;38.33;;;;;;;;4920418;28;45311;-66
2024/03/08 05:28:04;;;;;;;;;52.67;40.67;;;;;;;;4920945;28;45249;-65
2024/03/08 05:30:29;;;;;;;;;54.50;40.00;;;;;;;;4918095;28;46681;-66
2024/03/08 05:32:55;;;;;;;;;44.67;37.33;;;;;;;;4936125;28;45514;-66
2024/03/08 05:35:20;;;;;;;;;53.00;42.33;;;;;;;;4940544;28;45486;-65
2024/03/08 05:37:45;;;;;;;;;53.75;41.75;;;;;;;;4936529;28;45589;-65
2024/03/08 05:40:11;;;;;;;;;51.00;40.00;;;;;;;;4933702;28;45626;-66
2024/03/08 05:42:36;;;;;;;;;48.50;39.75;;;;;;;;4921895;28;45416;-66
2024/03/08 05:45:02;;;;;;;;;49.00;40.00;;;;;;;;4921532;28;45390;-65
2024/03/08 05:47:27;;;;;;;;;46.50;40.00;;;;;;;;4924733;28;45454;-66
2024/03/08 05:49:53;;;;;;;;;52.00;40.67;;;;;;;;4922248;28;46296;-65
2024/03/08 05:52:18;;;;;;;;;42.00;36.00;;;;;;;;4918602;28;45928;-66
2024/03/08 05:54:45;;;;;;;;;48.75;40.00;;;;;;;;4923499;28;45529;-66
2024/03/08 05:57:10;;;;;;;;;45.25;36.25;;;;;;;;4933331;28;45372;-65
2024/03/08 05:59:36;;;;;;;;;48.00;40.67;;;;;;;;4916921;28;46349;-66
2024/03/08 06:02:01;;;;;;;;;46.00;39.00;;;;;;;;4921637;28;45494;-65
2024/03/08 06:04:27;;;;;;;;;49.00;40.00;;;;;;;;4923490;28;45485;-65
2024/03/08 06:06:55;;;;;;;;;52.00;39.50;;;;;;;;4931278;28;45445;-66
2024/03/08 06:09:22;;;;;;;;;48.50;39.00;;;;;;;;4922886;28;47016;-65
2024/03/08 06:11:48;;;;;;;;;50.75;42.00;;;;;;;;4923458;28;45236;-65
2024/03/08 06:14:15;;;;;;;;;41.00;38.33;;;;;;;;4923078;28;45549;-65
2024/03/08 06:16:40;;;;;;;;;50.50;42.25;;;;;;;;4928403;28;45459;-65
2024/03/08 06:19:05;;;;;;;;;46.33;36.00;;;;;;;;4912261;28;45285;-65
2024/03/08 06:21:32;;;;;;;;;47.25;42.25;;;;;;;;4922967;28;45685;-65
2024/03/08 06:23:57;;;;;;;;;50.50;41.75;;;;;;;;4922929;28;45458;-66
2024/03/08 06:26:22;;;;;;;;;51.25;41.00;;;;;;;;4908968;28;45474;-65
2024/03/08 06:28:48;;;;;;;;;50.75;39.25;;;;;;;;4913955;28;46336;-66
2024/03/08 06:31:14;;;;;;;;;36.75;35.00;;;;;;;;4903192;28;45327;-65
2024/03/08 06:33:39;;;;;;;;;41.75;33.50;;;;;;;;4929540;28;45517;-65
2024/03/08 06:36:05;;;;;;;;;49.67;40.00;;;;;;;;4937661;28;45557;-66
2024/03/08 06:38:30;;;;;;;;;47.75;38.75;;;;;;;;4938844;28;46583;-65
2024/03/08 06:40:55;;;;;;;;;45.00;37.67;;;;;;;;4929255;28;45298;-65
2024/03/08 06:43:21;;;;;;;;;54.75;41.75;;;;;;;;4925917;28;45686;-66
2024/03/08 06:45:48;;;;;;;;;51.67;41.33;;;;;;;;4923766;28;45789;-69
2024/03/08 06:48:16;;;;;;;;;49.00;39.75;;;;;;;;4916414;28;45711;-66
2024/03/08 06:50:42;;;;;;;;;59.25;41.75;;;;;;;;4920783;28;45466;-67
2024/03/08 06:53:07;;;;;;;;;49.75;39.25;;;;;;;;4928110;28;45331;-67
2024/03/08 06:55:32;;;;;;;;;49.00;41.33;;;;;;;;4943614;28;45665;-67
2024/03/08 06:57:58;;;;;;;;;44.00;39.25;;;;;;;;4925710;28;47103;-66
2024/03/08 07:00:26;;;;;;;;;52.67;40.00;;;;;;;;4906600;28;45484;-66
2024/03/08 07:02:53;;;;;;;;;45.25;38.25;;;;;;;;4921075;28;45694;-66
2024/03/08 07:05:18;;;;;;;;;47.00;40.25;;;;;;;;4906901;28;45409;-66
2024/03/08 07:07:44;;;;;;;;;47.25;40.00;;;;;;;;4910453;28;47392;-66
2024/03/08 07:10:10;;;;;;;;;52.50;40.00;;;;;;;;4925647;28;45370;-67
2024/03/08 07:12:36;;;;;;;;;45.00;38.25;;;;;;;;4934418;28;45469;-67
2024/03/08 07:15:01;;;;;;;;;49.50;40.25;;;;;;;;4942937;28;45521;-66
2024/03/08 07:17:26;;;;;;;;;46.67;39.00;;;;;;;;4923395;28;47104;-66
2024/03/08 07:19:53;;;;;;;;;43.00;40.00;;;;;;;;4934566;28;45426;-66
2024/03/08 07:22:19;;;;;;;;;50.50;38.75;;;;;;;;4927366;28;45370;-66
2024/03/08 07:25:29;;;;;;;;;43.75;38.50;;;;;;;;4906755;28;45363;-65
2024/03/08 07:27:29;;;;;;;;;54.50;40.25;;;;;;;;4909755;28;45987;-65
2024/03/08 07:29:55;;;;;;;;;54.00;40.00;;;;;;;;4917299;28;45316;-65
2024/03/08 07:32:21;;;;;;;;;50.00;40.00;;;;;;;;4924718;28;45454;-65
2024/03/08 07:34:47;;;;;;;;;42.75;36.50;;;;;;;;4925021;28;45435;-65
2024/03/08 07:37:12;;;;;;;;;48.00;40.75;;;;;;;;4926085;28;46401;-65
2024/03/08 07:39:39;;;;;;;;;45.75;36.75;;;;;;;;4928490;28;45505;-65
2024/03/08 07:42:04;;;;;;;;;41.75;32.75;;;;;;;;4918236;28;45412;-65
2024/03/08 07:44:30;;;;;;;;;47.25;38.00;;;;;;;;4926135;28;46276;-65
2024/03/08 07:46:56;;;;;;;;;47.00;40.25;;;;;;;;4924267;28;46486;-65
2024/03/08 07:49:21;;;;;;;;;50.33;42.67;;;;;;;;4926123;28;45730;-65
2024/03/08 07:51:46;;;;;;;;;45.50;37.50;;;;;;;;4924429;28;45536;-65
2024/03/08 07:54:11;;;;;;;;;52.00;37.67;;;;;;;;4925826;28;45316;-65
2024/03/08 07:56:36;;;;;;;;;47.33;39.67;;;;;;;;4923522;28;45463;-65
2024/03/08 07:59:03;;;;;;;;;44.33;37.00;;;;;;;;4919945;28;45346;-65
2024/03/08 08:01:30;;;;;;;;;48.75;39.00;;;;;;;;4913440;28;45576;-65
2024/03/08 08:03:56;;;;;;;;;45.75;37.25;;;;;;;;4924967;28;45342;-65
2024/03/08 08:06:21;;;;;;;;;42.25;38.50;;;;;;;;4923803;28;46158;-65
2024/03/08 08:08:46;;;;;;;;;39.33;34.67;;;;;;;;4925898;28;45501;-65
2024/03/08 08:11:11;;;;;;;;;45.00;38.67;;;;;;;;4928983;28;45449;-63
2024/03/08 08:13:37;;;;;;;;;44.67;38.00;;;;;;;;4921076;28;45535;-65
2024/03/08 08:16:02;;;;;;;;;44.50;38.00;;;;;;;;4918394;28;46315;-64
2024/03/08 08:18:29;;;;;;;;;45.00;36.25;;;;;;;;4919322;28;45395;-64
2024/03/08 08:20:54;;;;;;;;;37.00;33.25;;;;;;;;4922796;28;45571;-64
2024/03/08 08:23:19;;;;;;;;;38.67;35.33;;;;;;;;4919628;28;45569;-64
2024/03/08 08:25:45;;;;;;;;;38.33;32.33;;;;;;;;4919174;28;45887;-64
2024/03/08 08:28:12;;;;;;;;;40.50;35.00;;;;;;;;4923700;28;45374;-64
2024/03/08 08:30:37;;;;;;;;;41.00;34.25;;;;;;;;4920847;28;45452;-64
2024/03/08 08:33:05;;;;;;;;;39.00;36.00;;;;;;;;4922761;28;45676;-65
2024/03/08 08:35:31;;;;;;;;;39.00;32.75;;;;;;;;4916735;28;45559;-66
2024/03/08 08:37:56;;;;;;;;;43.00;36.25;;;;;;;;4920885;28;45331;-64
2024/03/08 08:40:22;;;;;;;;;42.50;36.25;;;;;;;;4920798;28;45512;-65
2024/03/08 08:42:48;;;;;;;;;44.50;36.00;;;;;;;;4918848;28;45419;-64
2024/03/08 08:45:13;;;;;;;;;44.25;37.50;;;;;;;;4919575;28;45937;-65
2024/03/08 08:47:41;;;;;;;;;38.67;32.67;;;;;;;;4921721;28;45398;-65
2024/03/08 08:50:07;;;;;;;;;42.25;35.75;;;;;;;;4917197;28;45416;-65
2024/03/08 08:52:32;;;;;;;;;44.50;36.75;;;;;;;;4919360;28;45546;-65
2024/03/08 08:54:57;;;;;;;;;41.67;35.67;;;;;;;;4930464;28;45516;-65
2024/03/08 08:57:22;;;;;;;;;39.50;36.00;;;;;;;;4922524;28;45610;-65
2024/03/08 08:59:48;;;;;;;;;36.00;34.33;;;;;;;;4914262;28;45608;-64
2024/03/08 09:02:16;;;;;;;;;35.67;33.67;;;;;;;;4920540;28;45423;-65
2024/03/08 09:04:41;;;;;;;;;44.25;35.50;;;;;;;;4915300;28;45496;-65
2024/03/08 09:07:06;;;;;;;;;41.00;33.00;;;;;;;;4917633;28;45497;-65
2024/03/08 09:09:32;;;;;;;;;42.00;34.00;;;;;;;;4921301;28;45546;-65
2024/03/08 09:11:57;;;;;;;;;31.25;28.25;;;;;;;;4919133;28;45564;-67
2024/03/08 09:14:22;;;;;;;;;34.00;31.33;;;;;;;;4919505;28;45601;-65
2024/03/08 09:16:48;;;;;;;;;34.00;28.33;;;;;;;;4922227;28;45476;-65
2024/03/08 09:19:13;;;;;;;;;32.33;31.33;;;;;;;;4917340;28;45430;-65
2024/03/08 09:21:40;;;;;;;;;8.25;5.75;;;;;;;;4921734;28;45888;-65
2024/03/08 09:24:05;;;;;;;;;32.75;31.50;;;;;;;;4921292;28;45549;-65
2024/03/08 09:26:33;;;;;;;;;36.25;30.50;;;;;;;;4924838;28;45601;-65
2024/03/08 09:28:58;;;;;;;;;31.00;27.00;;;;;;;;4932081;28;45705;-65
2024/03/08 09:31:23;;;;;;;;;37.00;30.67;;;;;;;;4922372;28;45461;-65
2024/03/08 09:33:48;;;;;;;;;41.00;33.00;;;;;;;;4916779;28;45500;-65
2024/03/08 09:36:14;;;;;;;;;23.25;21.00;;;;;;;;4922604;28;45333;-65
2024/03/08 09:38:39;;;;;;;;;38.25;29.75;;;;;;;;4920028;28;45990;-65
2024/03/08 09:41:05;;;;;;;;;33.25;27.75;;;;;;;;4921790;28;45531;-65
2024/03/08 09:43:32;;;;;;;;;33.25;27.25;;;;;;;;4918480;28;45449;-65
2024/03/08 09:45:58;;;;;;;;;33.75;27.25;;;;;;;;4930390;28;45826;-66
2024/03/08 09:48:24;;;;;;;;;24.00;18.50;;;;;;;;4921402;28;45409;-65
2024/03/08 09:50:49;;;;;;;;;32.00;25.25;;;;;;;;4923199;28;45486;-65
2024/03/08 09:53:14;;;;;;;;;32.00;24.33;;;;;;;;4931377;28;45371;-65
2024/03/08 09:55:44;;;;;;;;;23.50;20.50;;;;;;;;4931292;28;45486;-65
2024/03/08 10:00:57;;;;;;;;;31.00;28.50;;;;;;;;4913631;28;45589;-65
2024/03/08 10:03:22;;;;;;;;;25.75;23.75;;;;;;;;4919668;28;45453;-65
2024/03/08 10:05:48;;;;;;;;;25.25;20.75;;;;;;;;4918532;28;45677;-66
2024/03/08 10:08:13;;;;;;;;;28.75;21.25;;;;;;;;4918626;28;45502;-65
2024/03/08 10:10:39;;;;;;;;;26.67;22.67;;;;;;;;4919715;28;45490;-65
2024/03/08 10:13:07;;;;;;;;;23.25;21.25;;;;;;;;4923196;28;46057;-65
2024/03/08 10:15:35;;;;;;;;;30.25;23.75;;;;;;;;4918681;28;45825;-65
2024/03/08 10:18:02;;;;;;;;;30.00;25.00;;;;;;;;4919296;28;45388;-65
2024/03/08 10:20:28;;;;;;;;;20.75;18.25;;;;;;;;4922529;28;45499;-65
2024/03/08 10:22:54;;;;;;;;;23.50;23.50;;;;;;;;4919198;28;47344;-65
2024/03/08 10:25:19;;;;;;;;;26.75;19.75;;;;;;;;4925143;28;45552;-65
2024/03/08 10:27:44;;;;;;;;;19.50;18.00;;;;;;;;4916819;28;45443;-65
2024/03/08 10:30:14;;;;;;;;;25.00;19.67;;;;;;;;4922303;28;45734;-67
2024/03/08 10:32:41;;;;;;;;;22.75;20.25;;;;;;;;4922108;28;46219;-67
2024/03/08 10:35:07;;;;;;;;;16.25;10.00;;;;;;;;4923834;28;45792;-67
2024/03/08 10:37:33;;;;;;;;;20.75;19.25;;;;;;;;4922053;28;45492;-65
2024/03/08 10:40:15;;;;;;;;;18.00;17.75;;;;;;;;4922443;28;45328;-65
2024/03/08 10:42:48;;;;;;;;;23.00;18.25;;;;;;;;4923435;28;47962;-65
2024/03/08 10:45:13;;;;;;;;;23.25;19.75;;;;;;;;4930847;28;45885;-65
2024/03/08 10:47:41;;;;;;;;;24.67;21.33;;;;;;;;4921371;28;45339;-65
2024/03/08 10:50:06;;;;;;;;;21.25;20.00;;;;;;;;4922358;28;45787;-65
2024/03/08 10:52:31;;;;;;;;;20.25;17.75;;;;;;;;4922152;28;46308;-65
2024/03/08 10:54:57;;;;;;;;;22.75;21.00;;;;;;;;4922899;28;45515;-65
2024/03/08 10:57:23;;;;;;;;;20.75;20.00;;;;;;;;4922344;28;45323;-65
2024/03/08 10:59:49;;;;;;;;;27.00;19.75;;;;;;;;4927876;28;45644;-64
2024/03/08 11:02:15;;;;;;;;;25.50;25.00;;;;;;;;4922403;28;46291;-65
2024/03/08 11:04:45;;;;;;;;;27.25;23.75;;;;;;;;4932741;28;45395;-65
2024/03/08 11:07:17;;;;;;;;;24.50;21.00;;;;;;;;4925124;28;45510;-65
2024/03/08 11:09:44;;;;;;;;;21.25;20.25;;;;;;;;4906041;28;45556;-66
2024/03/08 11:12:26;;;;;;;;;25.25;22.00;;;;;;;;4925644;28;46248;-66
2024/03/08 11:14:52;;;;;;;;;25.00;22.75;;;;;;;;4920361;28;46309;-66
2024/03/08 11:17:22;;;;;;;;;21.75;19.25;;;;;;;;4923782;28;45514;-66
2024/03/08 11:19:48;;;;;;;;;28.25;23.00;;;;;;;;4925572;28;45395;-66
2024/03/08 11:22:23;;;;;;;;;21.50;20.00;;;;;;;;4927566;28;45656;-65
2024/03/08 11:24:49;;;;;;;;;26.25;24.25;;;;;;;;4925852;28;45517;-66
2024/03/08 11:27:15;;;;;;;;;23.25;20.25;;;;;;;;4927761;28;46033;-65
2024/03/08 11:29:40;;;;;;;;;19.25;19.00;;;;;;;;4919411;28;45713;-65
2024/03/08 11:32:07;;;;;;;;;29.00;27.75;;;;;;;;4932147;28;46848;-66
2024/03/08 11:34:33;;;;;;;;;22.00;21.25;;;;;;;;4920196;28;45525;-66
2024/03/08 11:36:58;;;;;;;;;22.25;19.00;;;;;;;;4924185;28;45700;-66
2024/03/08 11:39:24;;;;;;;;;21.50;21.50;;;;;;;;4926687;28;45457;-65
2024/03/08 11:41:49;;;;;;;;;23.50;23.00;;;;;;;;4929124;28;45959;-66
2024/03/08 11:44:16;;;;;;;;;24.00;22.75;;;;;;;;4932005;28;45426;-66
2024/03/08 11:46:46;;;;;;;;;30.00;26.25;;;;;;;;4936516;28;45699;-65
2024/03/08 11:49:11;;;;;;;;;30.00;25.00;;;;;;;;4925997;28;45561;-66
2024/03/08 11:51:37;;;;;;;;;24.75;23.50;;;;;;;;4916838;28;46492;-66
2024/03/08 11:54:03;;;;;;;;;18.33;16.33;;;;;;;;4938275;28;45532;-66
2024/03/08 11:56:28;;;;;;;;;22.00;19.25;;;;;;;;4921873;28;45416;-66
2024/03/08 11:58:57;;;;;;;;;21.50;19.00;;;;;;;;4922058;28;45502;-66
2024/03/08 12:01:23;;;;;;;;;22.50;21.75;;;;;;;;4917428;28;46403;-66
2024/03/08 12:03:52;;;;;;;;;25.25;22.75;;;;;;;;4930662;28;45614;-66
2024/03/08 12:06:18;;;;;;;;;20.00;19.75;;;;;;;;4922487;28;45581;-66
2024/03/08 12:08:43;;;;;;;;;24.00;24.00;;;;;;;;4921840;28;45605;-66
2024/03/08 12:11:10;;;;;;;;;18.00;17.00;;;;;;;;4925125;28;46004;-66
2024/03/08 12:13:35;;;;;;;;;17.25;17.25;;;;;;;;4924279;28;46017;-65
2024/03/08 12:16:03;;;;;;;;;20.00;17.00;;;;;;;;4924272;28;45500;-66
2024/03/08 12:18:29;;;;;;;;;15.50;14.50;;;;;;;;4921785;28;45582;-66
2024/03/08 12:21:07;;;;;;;;;18.25;16.75;;;;;;;;4925502;28;45399;-66
2024/03/08 12:23:33;;;;;;;;;17.00;15.00;;;;;;;;4916131;28;45448;-68
2024/03/08 12:26:08;;;;;;;;;15.25;14.75;;;;;;;;4922083;28;45454;-66
2024/03/08 12:28:36;;;;;;;;;16.25;16.00;;;;;;;;4924069;28;45379;-67
2024/03/08 12:31:01;;;;;;;;;22.25;18.50;;;;;;;;4923355;28;45927;-71
2024/03/08 12:33:27;;;;;;;;;16.33;16.00;;;;;;;;4918951;28;45462;-71
2024/03/08 12:35:57;;;;;;;;;18.25;17.25;;;;;;;;4920906;28;45757;-69
2024/03/08 12:38:26;;;;;;;;;17.50;16.50;;;;;;;;4915888;28;45860;-69
2024/03/08 12:40:55;;;;;;;;;16.50;14.25;;;;;;;;4909668;28;47001;-68
2024/03/08 12:43:20;;;;;;;;;17.75;17.75;;;;;;;;4918278;28;45875;-69
2024/03/08 12:45:46;;;;;;;;;21.33;19.00;;;;;;;;4918565;28;45640;-69
2024/03/08 12:48:14;;;;;;;;;19.50;15.50;;;;;;;;4921330;28;45810;-69
2024/03/08 12:50:39;;;;;;;;;16.00;15.25;;;;;;;;4918176;28;47205;-69
2024/03/08 12:53:04;;;;;;;;;16.67;16.67;;;;;;;;4933865;28;45492;-69
2024/03/08 12:55:29;;;;;;;;;17.25;15.75;;;;;;;;4916143;28;45561;-67
2024/03/08 12:57:54;;;;;;;;;14.00;13.67;;;;;;;;4914743;28;45625;-69
2024/03/08 13:00:20;;;;;;;;;18.00;15.00;;;;;;;;4921613;28;45884;-69
2024/03/08 13:02:48;;;;;;;;;14.25;14.25;;;;;;;;4916427;28;45317;-69
2024/03/08 13:05:14;;;;;;;;;16.00;15.25;;;;;;;;4924792;28;45584;-69
2024/03/08 13:07:40;;;;;;;;;15.50;13.75;;;;;;;;4930776;28;45540;-69
2024/03/08 13:10:05;;;;;;;;;18.00;18.00;;;;;;;;4911286;28;47201;-69
2024/03/08 13:12:31;;;;;;;;;17.00;14.50;;;;;;;;4924526;28;45520;-69
2024/03/08 13:14:56;;;;;;;;;18.00;16.67;;;;;;;;4916175;28;45478;-69
2024/03/08 13:17:22;;;;;;;;;10.75;10.25;;;;;;;;4904534;28;45452;-69
2024/03/08 13:19:47;;;;;;;;;16.00;16.00;;;;;;;;4929797;28;46046;-69
2024/03/08 13:22:13;;;;;;;;;14.25;13.75;;;;;;;;4917791;28;45533;-69
2024/03/08 13:24:41;;;;;;;;;14.25;12.50;;;;;;;;4930409;28;45586;-70
2024/03/08 13:27:16;;;;;;;;;15.00;14.75;;;;;;;;4934510;28;45759;-71
2024/03/08 13:29:42;;;;;;;;;16.00;13.00;;;;;;;;4904864;28;46336;-69
2024/03/08 13:32:11;;;;;;;;;11.50;11.50;;;;;;;;4915273;28;45709;-70
2024/03/08 13:34:36;;;;;;;;;12.00;10.25;;;;;;;;4919584;28;45839;-68
2024/03/08 13:37:03;;;;;;;;;10.25;9.25;;;;;;;;4919532;28;45885;-69
2024/03/08 13:39:29;;;;;;;;;14.75;12.25;;;;;;;;4916417;28;47480;-68
2024/03/08 13:41:54;;;;;;;;;11.00;10.00;;;;;;;;4924998;28;45461;-68
2024/03/08 13:44:19;;;;;;;;;9.67;9.67;;;;;;;;4925213;28;45657;-68
2024/03/08 13:46:47;;;;;;;;;13.00;9.50;;;;;;;;4917367;28;45675;-70
2024/03/08 13:49:13;;;;;;;;;6.00;4.25;;;;;;;;4921828;28;46234;-67
2024/03/08 13:51:38;;;;;;;;;10.00;9.00;;;;;;;;4918034;28;45918;-68
2024/03/08 13:54:06;;;;;;;;;8.50;8.25;;;;;;;;4926482;28;45734;-68
2024/03/08 13:56:31;;;;;;;;;8.50;7.00;;;;;;;;4904656;28;45761;-68
2024/03/08 13:58:57;;;;;;;;;9.33;7.00;;;;;;;;4921825;28;46515;-68
2024/03/08 14:01:22;;;;;;;;;6.00;6.00;;;;;;;;4927138;28;45544;-68
2024/03/08 14:03:47;;;;;;;;;8.25;7.00;;;;;;;;4936131;28;45335;-68
2024/03/08 14:06:12;;;;;;;;;2.00;2.00;;;;;;;;4928552;28;45489;-68
2024/03/08 14:08:38;;;;;;;;;7.00;7.00;;;;;;;;4930121;28;46461;-68
2024/03/08 14:11:12;;;;;;;;;7.50;6.00;;;;;;;;4933582;28;45471;-68
2024/03/08 14:13:45;;;;;;;;;7.00;5.75;;;;;;;;4932176;28;45474;-68